createdAt,value
2023-03-23T15:59:47.720Z,49.82
2023-03-23T16:02:22.559Z,50.15
2023-03-23T16:04:51.086Z,50.43
2023-03-23T16:07:23.883Z,50.70
2023-03-23T16:09:51.837Z,51.01
2023-03-23T16:12:20.993Z,51.24
2023-03-23T16:14:50.259Z,51.50
2023-03-23T16:17:20.042Z,51.70
2023-03-23T16:19:50.242Z,51.82
2023-03-23T16:22:18.737Z,51.85
2023-03-23T16:24:50.337Z,52.04
2023-03-23T16:27:18.610Z,52.43
2023-03-23T16:30:03.218Z,52.38
2023-03-23T16:35:02.199Z,52.47
2023-03-23T16:37:33.726Z,52.45
2023-03-23T16:40:02.392Z,52.82
2023-03-23T16:42:31.059Z,52.81
2023-03-23T16:45:00.417Z,52.62
2023-03-23T16:47:28.573Z,52.93
2023-03-23T16:50:06.769Z,53.21
2023-03-23T16:52:35.295Z,53.38
2023-03-23T16:55:16.606Z,53.78
2023-03-23T16:57:44.987Z,54.17
2023-03-23T17:00:15.540Z,54.48
2023-03-23T17:02:44.405Z,54.49
2023-03-23T17:05:13.576Z,54.77
2023-03-23T17:07:42.150Z,54.84
2023-03-23T17:10:16.272Z,55.15
2023-03-23T17:12:46.138Z,55.28
2023-03-23T17:15:15.742Z,55.27
2023-03-23T17:17:44.579Z,55.36
2023-03-23T17:20:13.641Z,55.64
2023-03-23T17:22:41.901Z,55.66
2023-03-23T17:25:11.487Z,55.70
2023-03-23T17:27:39.843Z,56.09
2023-03-23T17:30:09.412Z,55.96
2023-03-23T17:32:39.345Z,56.02
2023-03-23T17:35:08.155Z,56.10
2023-03-23T17:37:38.324Z,56.34
2023-03-23T17:40:10.360Z,56.81
2023-03-23T17:42:38.676Z,56.90
2023-03-23T17:45:07.990Z,57.14
2023-03-23T17:47:36.628Z,57.19
2023-03-23T17:50:11.526Z,57.22
2023-03-23T17:52:43.703Z,57.34
2023-03-23T17:55:12.160Z,57.60
2023-03-23T17:57:44.723Z,57.94
2023-03-23T18:00:13.477Z,58.05
2023-03-23T18:02:42.058Z,58.31
2023-03-23T18:05:11.168Z,58.39
2023-03-23T18:07:39.803Z,58.64
2023-03-23T18:10:13.142Z,58.99
2023-03-23T18:12:42.527Z,59.23
2023-03-23T18:15:11.107Z,59.48
2023-03-23T18:17:39.463Z,59.48
2023-03-23T18:20:08.795Z,59.70
2023-03-23T18:22:36.997Z,59.96
2023-03-23T18:25:06.070Z,60.10
2023-03-23T18:27:34.393Z,60.46
2023-03-23T18:30:04.102Z,60.71
2023-03-23T18:32:36.321Z,61.01
2023-03-23T18:35:06.008Z,61.17
2023-03-23T18:37:35.451Z,61.15
2023-03-23T18:40:05.831Z,61.35
2023-03-23T18:42:34.381Z,61.36
2023-03-23T18:45:03.190Z,61.58
2023-03-23T18:47:31.507Z,62.03
2023-03-23T18:49:59.799Z,62.11
2023-03-23T18:52:30.886Z,62.40
2023-03-23T18:54:59.895Z,62.71
2023-03-23T18:57:28.540Z,62.86
2023-03-23T18:59:57.278Z,63.29
2023-03-23T19:02:25.662Z,63.32
2023-03-23T19:04:54.174Z,63.57
2023-03-23T19:07:22.330Z,63.70
2023-03-23T19:09:50.518Z,63.75
2023-03-23T19:12:23.322Z,63.92
2023-03-23T19:14:52.581Z,64.15
2023-03-23T19:17:20.802Z,64.52
2023-03-23T19:19:52.620Z,64.53
2023-03-23T19:22:21.235Z,64.55
2023-03-23T19:24:49.386Z,64.48
2023-03-23T19:27:21.024Z,64.68
2023-03-23T19:29:50.092Z,64.69
2023-03-23T19:32:21.104Z,64.66
2023-03-23T19:34:51.224Z,64.68
2023-03-23T19:37:20.526Z,64.89
2023-03-23T19:39:50.052Z,64.88
2023-03-23T19:42:20.551Z,64.77
2023-03-23T19:44:50.879Z,65.03
2023-03-23T19:47:19.590Z,65.02
2023-03-23T19:49:49.238Z,64.88
2023-03-23T19:52:18.884Z,65.01
2023-03-23T19:54:48.038Z,64.91
2023-03-23T19:57:17.836Z,64.76
2023-03-23T19:59:46.829Z,64.81
2023-03-23T20:02:15.311Z,64.74
2023-03-23T20:04:50.197Z,64.77
2023-03-23T20:07:26.516Z,64.79
2023-03-23T20:09:55.146Z,64.78
2023-03-23T20:12:24.886Z,64.60
2023-03-23T20:14:53.351Z,64.56
2023-03-23T20:17:21.683Z,64.44
2023-03-23T20:19:56.783Z,64.36
2023-03-23T20:22:24.920Z,64.37
2023-03-23T20:24:53.032Z,64.72
2023-03-23T20:27:21.247Z,64.83
2023-03-23T20:29:49.516Z,64.73
2023-03-23T20:32:17.783Z,64.77
2023-03-23T20:34:49.537Z,64.72
2023-03-23T20:37:20.578Z,64.98
2023-03-23T20:39:50.298Z,65.01
2023-03-23T20:42:18.512Z,65.22
2023-03-23T20:44:49.124Z,64.94
2023-03-23T20:47:17.577Z,65.19
2023-03-23T20:49:52.776Z,65.18
2023-03-23T20:52:23.585Z,65.23
2023-03-23T20:54:55.071Z,65.11
2023-03-23T20:57:23.502Z,65.09
2023-03-23T20:59:53.554Z,65.25
2023-03-23T21:02:30.187Z,65.16
2023-03-23T21:05:04.433Z,65.13
2023-03-23T21:07:33.500Z,65.07
2023-03-23T21:10:02.019Z,65.21
2023-03-23T21:12:32.218Z,65.26
2023-03-23T21:15:01.642Z,65.65
2023-03-23T21:17:30.389Z,65.81
2023-03-23T21:20:11.093Z,66.04
2023-03-23T21:22:40.107Z,66.41
2023-03-23T21:25:10.212Z,66.56
2023-03-23T21:27:38.508Z,66.79
2023-03-23T21:30:08.142Z,67.01
2023-03-23T21:32:36.617Z,67.26
2023-03-23T21:35:06.502Z,67.34
2023-03-23T21:37:34.868Z,67.48
2023-03-23T21:40:16.946Z,67.55
2023-03-23T21:42:49.505Z,67.73
2023-03-23T21:45:24.262Z,67.93
2023-03-23T21:48:02.798Z,67.98
2023-03-23T21:50:36.893Z,68.14
2023-03-23T21:53:05.723Z,68.03
2023-03-23T21:55:35.858Z,68.00
2023-03-23T21:58:05.852Z,68.00
2023-03-23T22:00:34.095Z,68.03
2023-03-23T22:03:04.885Z,68.34
2023-03-23T22:05:33.163Z,68.30
2023-03-23T22:08:01.986Z,68.38
2023-03-23T22:10:31.308Z,68.40
2023-03-23T22:13:00.764Z,68.52
2023-03-23T22:15:29.592Z,68.60
2023-03-23T22:17:58.967Z,68.69
2023-03-23T22:20:27.167Z,68.58
2023-03-23T22:22:56.215Z,68.62
2023-03-23T22:25:24.721Z,68.65
2023-03-23T22:27:55.453Z,68.80
2023-03-23T22:30:24.643Z,68.76
2023-03-23T22:32:53.242Z,68.77
2023-03-23T22:35:21.653Z,68.90
2023-03-23T22:37:50.069Z,68.78
2023-03-23T22:40:19.743Z,68.75
2023-03-23T22:42:51.567Z,68.83
2023-03-23T22:45:19.700Z,68.95
2023-03-23T22:47:49.024Z,68.75
2023-03-23T22:50:21.513Z,68.51
2023-03-23T22:52:50.075Z,68.47
2023-03-23T22:55:27.091Z,68.46
2023-03-23T22:57:56.121Z,68.37
2023-03-23T23:00:24.333Z,68.12
2023-03-23T23:02:52.514Z,68.25
2023-03-23T23:05:20.964Z,68.23
2023-03-23T23:07:50.464Z,67.95
2023-03-23T23:10:19.647Z,67.72
2023-03-23T23:12:48.793Z,67.87
2023-03-23T23:15:22.391Z,68.01
2023-03-23T23:17:50.921Z,67.96
2023-03-23T23:20:19.087Z,68.15
2023-03-23T23:22:48.992Z,68.13
2023-03-23T23:25:17.316Z,68.36
2023-03-23T23:27:46.080Z,68.47
2023-03-23T23:30:14.308Z,68.49
2023-03-23T23:32:52.329Z,69.02
2023-03-23T23:35:26.232Z,68.99
2023-03-23T23:37:55.654Z,68.96
2023-03-23T23:40:26.033Z,69.23
2023-03-23T23:42:54.173Z,69.33
2023-03-23T23:45:23.129Z,69.46
2023-03-23T23:47:59.333Z,69.58
2023-03-23T23:50:27.886Z,69.38
2023-03-23T23:52:59.110Z,69.48
2023-03-23T23:55:27.494Z,69.83
2023-03-23T23:57:56.179Z,69.84
